Time;durP1;ratioP1;P1;durP2;ratioP2;P2;SDS_P1;SDS_P2;PMS_P1;PMS_P2;Temp;Humidity;BMP_temperature;BMP_pressure;BME280_temperature;BME280_humidity;BME280_pressure;Samples;Min_cycle;Max_cycle;Signal;HPM_P1;HPM_P2
2023/08/28 00:00:59;;;;;;;6.50;3.67;;;;;;;;;;2090182;28;20029;-67
2023/08/28 00:02:00;;;;;;;7.28;3.35;;;;;;;;;;2090642;28;20047;-67
2023/08/28 00:03:00;;;;;;;6.78;3.40;;;;;;;;;;2090631;28;20047;-66
2023/08/28 00:04:02;;;;;;;4.60;3.55;;;;;;;;;;2090816;28;20068;-67
2023/08/28 00:05:03;;;;;;;4.88;3.22;;;;;;;;;;2090646;28;20393;-69
2023/08/28 00:06:04;;;;;;;4.80;3.50;;;;;;;;;;2090551;28;20056;-69
2023/08/28 00:07:04;;;;;;;5.25;3.15;;;;;;;;;;2091017;28;20049;-70
2023/08/28 00:08:05;;;;;;;6.50;4.00;;;;;;;;;;2090599;28;20048;-68
2023/08/28 00:09:07;;;;;;;5.75;3.72;;;;;;;;;;2090681;28;20120;-68
2023/08/28 00:10:08;;;;;;;5.40;3.50;;;;;;;;;;2090578;28;20041;-68
2023/08/28 00:11:09;;;;;;;7.57;3.63;;;;;;;;;;2090687;28;20043;-68
2023/08/28 00:12:10;;;;;;;4.30;3.20;;;;;;;;;;2090217;28;20036;-66
2023/08/28 00:13:10;;;;;;;4.55;3.40;;;;;;;;;;2090065;28;20048;-68
2023/08/28 00:14:11;;;;;;;4.97;2.90;;;;;;;;;;2090397;28;20037;-69
2023/08/28 00:15:12;;;;;;;4.35;3.20;;;;;;;;;;2090550;28;20037;-68
2023/08/28 00:16:13;;;;;;;10.82;3.60;;;;;;;;;;2090897;28;20489;-67
2023/08/28 00:17:17;;;;;;;5.82;3.63;;;;;;;;;;2090682;28;20059;-68
2023/08/28 00:18:18;;;;;;;7.22;3.35;;;;;;;;;;2090544;28;20414;-68
2023/08/28 00:19:19;;;;;;;5.65;3.28;;;;;;;;;;2090923;28;20049;-68
2023/08/28 00:20:20;;;;;;;5.65;3.92;;;;;;;;;;2090744;28;20086;-69
2023/08/28 00:21:21;;;;;;;4.95;3.38;;;;;;;;;;2090611;28;20049;-69
2023/08/28 00:22:22;;;;;;;4.07;3.42;;;;;;;;;;2090489;28;20078;-68
2023/08/28 00:23:22;;;;;;;5.97;4.00;;;;;;;;;;2090134;28;20041;-68
2023/08/28 00:24:23;;;;;;;6.82;3.95;;;;;;;;;;2090920;28;20037;-69
2023/08/28 00:25:24;;;;;;;6.53;3.50;;;;;;;;;;2090249;28;20405;-67
2023/08/28 00:26:24;;;;;;;4.18;3.10;;;;;;;;;;2090340;28;20044;-67
2023/08/28 00:27:25;;;;;;;6.20;3.90;;;;;;;;;;2090593;28;20039;-67
2023/08/28 00:28:26;;;;;;;4.30;3.60;;;;;;;;;;2089936;28;20037;-66
2023/08/28 00:29:26;;;;;;;6.35;3.83;;;;;;;;;;2089573;28;20037;-67
2023/08/28 00:30:27;;;;;;;6.30;3.97;;;;;;;;;;2089856;28;20045;-67
2023/08/28 00:31:28;;;;;;;5.25;3.50;;;;;;;;;;2081766;28;20398;-67
2023/08/28 00:32:29;;;;;;;7.13;3.65;;;;;;;;;;2090041;28;20029;-64
2023/08/28 00:33:31;;;;;;;5.30;3.83;;;;;;;;;;2089585;28;20067;-65
2023/08/28 00:34:31;;;;;;;8.27;3.75;;;;;;;;;;2089839;28;20044;-65
2023/08/28 00:35:32;;;;;;;7.97;3.83;;;;;;;;;;2089748;28;20036;-65
2023/08/28 00:36:33;;;;;;;7.43;3.88;;;;;;;;;;2089563;28;20041;-66
2023/08/28 00:37:33;;;;;;;4.85;3.58;;;;;;;;;;2090834;28;20056;-67
2023/08/28 00:38:36;;;;;;;5.82;3.85;;;;;;;;;;2088771;28;20057;-67
2023/08/28 00:39:37;;;;;;;6.70;3.72;;;;;;;;;;2081483;28;20038;-67
2023/08/28 00:40:41;;;;;;;5.78;3.90;;;;;;;;;;2089713;28;20072;-67
2023/08/28 00:41:41;;;;;;;5.38;3.55;;;;;;;;;;2089065;28;20041;-67
2023/08/28 00:42:43;;;;;;;5.53;3.90;;;;;;;;;;2081518;28;20041;-66
2023/08/28 00:43:44;;;;;;;7.45;3.65;;;;;;;;;;2081807;28;20041;-67
2023/08/28 00:44:45;;;;;;;5.57;3.83;;;;;;;;;;2082067;28;20041;-67
2023/08/28 00:45:46;;;;;;;6.55;3.78;;;;;;;;;;2089430;28;20052;-66
2023/08/28 00:46:47;;;;;;;5.60;3.95;;;;;;;;;;2089460;28;20049;-68
2023/08/28 00:47:48;;;;;;;5.60;3.90;;;;;;;;;;2081373;28;20548;-66
2023/08/28 00:48:49;;;;;;;6.30;4.07;;;;;;;;;;2089351;28;20581;-67
2023/08/28 00:49:50;;;;;;;6.50;4.00;;;;;;;;;;2089510;28;20063;-67
2023/08/28 00:50:51;;;;;;;6.50;4.25;;;;;;;;;;2089707;28;20494;-69
2023/08/28 00:51:52;;;;;;;7.38;3.90;;;;;;;;;;2089851;28;20045;-66
2023/08/28 00:52:52;;;;;;;5.78;4.32;;;;;;;;;;2089699;28;20045;-68
2023/08/28 00:53:53;;;;;;;5.68;4.00;;;;;;;;;;2089859;28;20045;-66
2023/08/28 00:54:54;;;;;;;5.10;4.15;;;;;;;;;;2089846;28;20044;-68
2023/08/28 00:55:54;;;;;;;10.40;4.20;;;;;;;;;;2089735;28;20032;-67
2023/08/28 00:56:55;;;;;;;6.07;4.28;;;;;;;;;;2090302;28;20365;-67
2023/08/28 00:57:56;;;;;;;6.38;3.88;;;;;;;;;;2089714;28;20029;-68
2023/08/28 00:58:57;;;;;;;7.05;4.28;;;;;;;;;;2090105;28;20041;-66
2023/08/28 00:59:57;;;;;;;5.13;3.83;;;;;;;;;;2081807;28;20053;-68
2023/08/28 01:00:58;;;;;;;4.88;3.53;;;;;;;;;;2072931;28;20053;-66
2023/08/28 01:01:59;;;;;;;8.88;4.60;;;;;;;;;;2081754;28;20452;-66
2023/08/28 01:02:59;;;;;;;5.80;4.00;;;;;;;;;;2081221;28;20037;-67
2023/08/28 01:04:00;;;;;;;4.72;3.85;;;;;;;;;;2080997;28;20050;-67
2023/08/28 01:05:01;;;;;;;5.88;3.90;;;;;;;;;;2089644;28;20040;-66
2023/08/28 01:06:02;;;;;;;5.85;4.10;;;;;;;;;;2089517;28;20036;-67
2023/08/28 01:07:11;;;;;;;6.28;3.70;;;;;;;;;;2081695;28;20076;-67
2023/08/28 01:08:25;;;;;;;6.95;4.25;;;;;;;;;;2082139;28;20041;-67
2023/08/28 01:09:25;;;;;;;6.63;4.15;;;;;;;;;;2083120;28;20474;-66
2023/08/28 01:10:34;;;;;;;8.35;5.10;;;;;;;;;;2081472;28;20038;-66
2023/08/28 01:11:53;;;;;;;7.75;4.20;;;;;;;;;;2074457;28;20489;-66
2023/08/28 01:13:04;;;;;;;7.40;4.00;;;;;;;;;;2075876;28;20037;-66
2023/08/28 01:14:15;;;;;;;9.38;4.65;;;;;;;;;;2076166;28;20044;-67
2023/08/28 01:15:20;;;;;;;6.60;3.90;;;;;;;;;;2082859;28;20501;-67
2023/08/28 01:16:21;;;;;;;6.05;4.03;;;;;;;;;;2089307;28;20548;-67
2023/08/28 01:17:23;;;;;;;7.63;4.32;;;;;;;;;;2080844;28;20045;-67
2023/08/28 01:18:25;;;;;;;7.60;4.25;;;;;;;;;;2073514;28;20041;-67
2023/08/28 01:19:29;;;;;;;5.50;4.22;;;;;;;;;;2073232;28;20486;-67
2023/08/28 01:20:30;;;;;;;5.68;4.22;;;;;;;;;;2081888;28;20045;-67
2023/08/28 01:21:31;;;;;;;5.90;4.53;;;;;;;;;;2089574;28;20029;-67
2023/08/28 01:22:34;;;;;;;6.00;4.00;;;;;;;;;;2081979;28;20056;-68
2023/08/28 01:23:39;;;;;;;7.97;4.53;;;;;;;;;;2081069;28;20033;-67
2023/08/28 01:24:42;;;;;;;6.30;4.53;;;;;;;;;;2082175;28;20037;-67
2023/08/28 01:25:43;;;;;;;7.20;4.18;;;;;;;;;;2081277;28;20033;-67
2023/08/28 01:26:44;;;;;;;5.40;4.25;;;;;;;;;;2073075;28;20038;-68
2023/08/28 01:27:46;;;;;;;6.63;4.15;;;;;;;;;;2073244;28;20049;-67
2023/08/28 01:28:47;;;;;;;6.63;3.90;;;;;;;;;;2081739;28;20029;-66
2023/08/28 01:30:23;;;;;;;5.50;3.92;;;;;;;;;;2090151;28;20048;-66
2023/08/28 01:31:24;;;;;;;7.53;4.45;;;;;;;;;;2080935;28;20068;-65
2023/08/28 01:32:24;;;;;;;9.07;4.22;;;;;;;;;;2080980;28;20048;-65
2023/08/28 01:33:25;;;;;;;7.47;4.20;;;;;;;;;;2074394;28;20037;-65
2023/08/28 01:34:26;;;;;;;6.00;4.00;;;;;;;;;;2089736;28;20041;-68
2023/08/28 01:35:28;;;;;;;5.90;4.30;;;;;;;;;;2090087;28;20167;-68
2023/08/28 01:36:33;;;;;;;7.60;3.80;;;;;;;;;;2081616;28;20045;-68
2023/08/28 01:37:44;;;;;;;5.07;3.78;;;;;;;;;;2074043;28;20050;-67
2023/08/28 01:38:50;;;;;;;6.53;3.88;;;;;;;;;;2090696;28;20051;-67
2023/08/28 01:39:50;;;;;;;5.85;3.35;;;;;;;;;;2089517;28;20044;-68
2023/08/28 01:41:06;;;;;;;4.95;3.92;;;;;;;;;;2089128;28;20068;-68
2023/08/28 01:42:07;;;;;;;7.15;4.00;;;;;;;;;;2075380;28;20049;-68
2023/08/28 01:43:08;;;;;;;5.85;3.80;;;;;;;;;;2073490;28;20509;-68
2023/08/28 01:44:09;;;;;;;5.88;3.63;;;;;;;;;;2081271;28;20045;-68
2023/08/28 01:45:10;;;;;;;5.65;3.83;;;;;;;;;;2073339;28;20115;-69
2023/08/28 01:46:11;;;;;;;7.85;3.88;;;;;;;;;;2073400;28;20501;-68
2023/08/28 01:47:13;;;;;;;5.30;3.95;;;;;;;;;;2080889;28;20046;-68
2023/08/28 01:48:14;;;;;;;5.55;3.88;;;;;;;;;;2089149;28;20432;-68
2023/08/28 01:49:14;;;;;;;7.03;4.32;;;;;;;;;;2089462;28;20041;-66
2023/08/28 01:50:16;;;;;;;6.55;4.03;;;;;;;;;;2080968;28;20049;-67
2023/08/28 01:51:17;;;;;;;6.70;4.50;;;;;;;;;;2089647;28;20131;-67
2023/08/28 01:52:18;;;;;;;6.72;4.05;;;;;;;;;;2089731;28;20049;-67
2023/08/28 01:53:19;;;;;;;5.50;4.07;;;;;;;;;;2088916;28;20081;-67
2023/08/28 01:54:20;;;;;;;8.00;4.20;;;;;;;;;;2089609;28;20493;-67
2023/08/28 01:55:25;;;;;;;7.05;4.50;;;;;;;;;;2089502;28;20052;-67
2023/08/28 01:56:26;;;;;;;8.18;4.43;;;;;;;;;;2073505;28;20060;-67
2023/08/28 01:57:27;;;;;;;4.93;4.00;;;;;;;;;;2073235;28;20405;-68
2023/08/28 01:58:28;;;;;;;6.32;4.22;;;;;;;;;;2080825;28;20084;-67
2023/08/28 01:59:29;;;;;;;6.93;4.07;;;;;;;;;;2089374;28;20424;-68
2023/08/28 02:00:30;;;;;;;5.95;4.05;;;;;;;;;;2081394;28;20033;-67
2023/08/28 02:01:30;;;;;;;6.20;4.05;;;;;;;;;;2081439;28;20109;-68
2023/08/28 02:02:31;;;;;;;6.68;4.00;;;;;;;;;;2089665;28;20045;-67
2023/08/28 02:03:32;;;;;;;7.07;4.55;;;;;;;;;;2089473;28;20041;-66
2023/08/28 02:04:33;;;;;;;5.57;4.53;;;;;;;;;;2089655;28;20045;-67
2023/08/28 02:05:33;;;;;;;6.60;4.28;;;;;;;;;;2081156;28;20073;-67
2023/08/28 02:06:34;;;;;;;6.30;4.47;;;;;;;;;;2089536;28;20037;-68
2023/08/28 02:07:35;;;;;;;6.70;4.57;;;;;;;;;;2081114;28;20049;-67
2023/08/28 02:08:36;;;;;;;6.60;4.93;;;;;;;;;;2089345;28;20045;-67
2023/08/28 02:09:36;;;;;;;10.45;4.88;;;;;;;;;;2089016;28;20136;-64
2023/08/28 02:10:37;;;;;;;6.20;4.78;;;;;;;;;;2081409;28;20076;-66
2023/08/28 02:11:38;;;;;;;6.63;5.28;;;;;;;;;;2088964;28;20052;-65
2023/08/28 02:12:39;;;;;;;8.82;5.82;;;;;;;;;;2089007;28;20045;-65
2023/08/28 02:13:40;;;;;;;6.05;4.78;;;;;;;;;;2089428;28;20412;-67
2023/08/28 02:14:41;;;;;;;6.63;4.68;;;;;;;;;;2089254;28;20093;-68
2023/08/28 02:15:41;;;;;;;8.43;5.07;;;;;;;;;;2081146;28;20501;-68
2023/08/28 02:16:42;;;;;;;7.30;4.38;;;;;;;;;;2089359;28;20048;-68
2023/08/28 02:17:44;;;;;;;8.18;4.78;;;;;;;;;;2097694;28;20032;-68
2023/08/28 02:18:45;;;;;;;6.75;5.07;;;;;;;;;;2089301;28;20477;-68
2023/08/28 02:19:45;;;;;;;6.97;5.15;;;;;;;;;;2081089;28;20034;-68
2023/08/28 02:20:46;;;;;;;6.63;4.88;;;;;;;;;;2089024;28;20082;-69
2023/08/28 02:21:47;;;;;;;7.40;5.00;;;;;;;;;;2089142;28;20078;-67
2023/08/28 02:22:48;;;;;;;8.68;6.13;;;;;;;;;;2090363;28;20387;-68
2023/08/28 02:23:48;;;;;;;8.63;5.18;;;;;;;;;;2089840;28;20033;-68
2023/08/28 02:24:49;;;;;;;7.15;4.97;;;;;;;;;;2088448;28;20052;-69
2023/08/28 02:25:50;;;;;;;6.25;4.80;;;;;;;;;;2088999;28;20044;-68
2023/08/28 02:26:52;;;;;;;5.97;4.28;;;;;;;;;;2089359;28;20033;-67
2023/08/28 02:27:53;;;;;;;6.32;4.32;;;;;;;;;;2089267;28;20397;-67
2023/08/28 02:28:53;;;;;;;5.85;4.53;;;;;;;;;;2089576;28;20040;-68
2023/08/28 02:29:54;;;;;;;10.13;4.90;;;;;;;;;;2089556;28;20028;-68
2023/08/28 02:30:56;;;;;;;5.57;4.25;;;;;;;;;;2080714;28;20060;-67
2023/08/28 02:31:57;;;;;;;7.57;4.90;;;;;;;;;;2089309;28;20033;-65
2023/08/28 02:32:57;;;;;;;6.32;4.85;;;;;;;;;;2088933;28;20429;-65
2023/08/28 02:33:59;;;;;;;6.20;4.80;;;;;;;;;;2089298;28;20041;-66
2023/08/28 02:34:59;;;;;;;6.53;4.80;;;;;;;;;;2088995;28;20045;-66
2023/08/28 02:36:01;;;;;;;8.60;4.95;;;;;;;;;;2089818;28;20037;-66
2023/08/28 02:37:01;;;;;;;8.82;5.35;;;;;;;;;;2090438;28;20041;-67
2023/08/28 02:38:03;;;;;;;6.65;4.90;;;;;;;;;;2082786;28;20096;-67
2023/08/28 02:39:04;;;;;;;7.70;5.22;;;;;;;;;;2082205;28;20096;-67
2023/08/28 02:40:05;;;;;;;8.35;4.72;;;;;;;;;;2090637;28;20041;-68
2023/08/28 02:41:07;;;;;;;10.45;5.40;;;;;;;;;;2082821;28;20051;-68
2023/08/28 02:42:08;;;;;;;7.57;5.53;;;;;;;;;;2090731;28;20045;-67
2023/08/28 02:43:09;;;;;;;9.00;6.40;;;;;;;;;;2090647;28;20080;-66
2023/08/28 02:44:09;;;;;;;8.10;6.30;;;;;;;;;;2082437;28;20079;-67
2023/08/28 02:45:10;;;;;;;9.45;6.40;;;;;;;;;;2082440;28;20524;-66
2023/08/28 02:46:11;;;;;;;11.55;6.85;;;;;;;;;;2090770;28;20041;-67
2023/08/28 02:47:13;;;;;;;6.93;5.60;;;;;;;;;;2090240;28;20515;-69
2023/08/28 02:48:13;;;;;;;9.75;6.93;;;;;;;;;;2082604;28;20056;-69
2023/08/28 02:49:14;;;;;;;8.85;6.22;;;;;;;;;;2082171;28;20050;-68
2023/08/28 02:50:15;;;;;;;8.15;6.18;;;;;;;;;;2090689;28;20033;-69
2023/08/28 02:51:15;;;;;;;12.82;6.53;;;;;;;;;;2090743;28;20567;-68
2023/08/28 02:52:16;;;;;;;13.85;7.38;;;;;;;;;;2082398;28;20504;-69
2023/08/28 02:53:17;;;;;;;9.02;6.72;;;;;;;;;;2082386;28;20501;-69
2023/08/28 02:54:18;;;;;;;9.52;6.88;;;;;;;;;;2082736;28;20076;-70
2023/08/28 02:55:18;;;;;;;10.55;7.25;;;;;;;;;;2082040;28;20057;-71
2023/08/28 02:56:26;;;;;;;8.55;6.88;;;;;;;;;;2082393;28;20503;-71
2023/08/28 02:57:27;;;;;;;8.57;6.22;;;;;;;;;;2083295;28;20068;-70
2023/08/28 02:58:27;;;;;;;8.65;5.90;;;;;;;;;;2090168;28;20096;-71
2023/08/28 02:59:28;;;;;;;8.82;5.75;;;;;;;;;;2098545;28;20085;-69
2023/08/28 03:00:29;;;;;;;9.38;7.20;;;;;;;;;;2090560;28;20132;-69
2023/08/28 03:01:34;;;;;;;8.63;6.10;;;;;;;;;;2090288;28;20111;-69
2023/08/28 03:02:35;;;;;;;8.80;7.10;;;;;;;;;;2091536;28;20551;-68
2023/08/28 03:03:35;;;;;;;10.93;7.20;;;;;;;;;;2091199;28;20127;-69
2023/08/28 03:04:36;;;;;;;9.13;7.30;;;;;;;;;;2091148;28;20021;-70
2023/08/28 03:05:37;;;;;;;10.02;7.32;;;;;;;;;;2090821;28;20041;-71
2023/08/28 03:06:38;;;;;;;9.52;7.38;;;;;;;;;;2082332;28;20094;-70
2023/08/28 03:07:38;;;;;;;8.07;6.97;;;;;;;;;;2082011;28;20075;-71
2023/08/28 03:08:39;;;;;;;9.63;6.82;;;;;;;;;;2082497;28;20037;-71
2023/08/28 03:09:40;;;;;;;8.38;6.10;;;;;;;;;;2090435;28;20048;-70
2023/08/28 03:10:41;;;;;;;7.97;5.85;;;;;;;;;;2090564;28;20025;-71
2023/08/28 03:11:41;;;;;;;10.02;6.63;;;;;;;;;;2091372;28;20488;-70
2023/08/28 03:12:42;;;;;;;9.57;6.57;;;;;;;;;;2091192;28;20377;-70
2023/08/28 03:13:43;;;;;;;11.05;6.85;;;;;;;;;;2091005;28;20045;-68
2023/08/28 03:14:44;;;;;;;9.98;6.97;;;;;;;;;;2090396;28;20119;-69
2023/08/28 03:15:44;;;;;;;10.18;6.55;;;;;;;;;;2089865;28;20128;-68
2023/08/28 03:16:45;;;;;;;11.18;6.78;;;;;;;;;;2091158;28;20029;-68
2023/08/28 03:17:46;;;;;;;7.70;5.70;;;;;;;;;;2082548;28;20052;-69
2023/08/28 03:18:48;;;;;;;7.05;6.30;;;;;;;;;;2082000;28;20490;-70
2023/08/28 03:19:49;;;;;;;8.68;6.30;;;;;;;;;;2098045;28;20032;-70
2023/08/28 03:20:50;;;;;;;7.82;6.00;;;;;;;;;;2090097;28;20643;-70
2023/08/28 03:21:50;;;;;;;11.70;6.78;;;;;;;;;;2081750;28;20068;-69
2023/08/28 03:22:51;;;;;;;8.52;6.22;;;;;;;;;;2090185;28;20033;-66
2023/08/28 03:23:52;;;;;;;10.18;6.75;;;;;;;;;;2090089;28;20040;-66
2023/08/28 03:24:53;;;;;;;8.07;6.20;;;;;;;;;;2082202;28;20076;-66
2023/08/28 03:25:54;;;;;;;12.68;5.80;;;;;;;;;;2090238;28;20037;-65
2023/08/28 03:26:55;;;;;;;8.05;5.85;;;;;;;;;;2089910;28;20037;-64
2023/08/28 03:27:56;;;;;;;8.93;6.03;;;;;;;;;;2090860;28;20469;-65
2023/08/28 03:28:56;;;;;;;7.07;5.88;;;;;;;;;;2090424;28;20037;-66
2023/08/28 03:29:57;;;;;;;8.90;6.38;;;;;;;;;;2090930;28;20098;-67
2023/08/28 03:30:58;;;;;;;7.65;5.75;;;;;;;;;;2090552;28;20074;-68
2023/08/28 03:31:59;;;;;;;8.60;5.93;;;;;;;;;;2090377;28;20044;-68
2023/08/28 03:33:00;;;;;;;11.35;6.53;;;;;;;;;;2090500;28;20036;-69
2023/08/28 03:34:01;;;;;;;9.45;7.25;;;;;;;;;;2091230;28;20342;-68
2023/08/28 03:35:02;;;;;;;8.13;6.57;;;;;;;;;;2090308;28;20040;-70
2023/08/28 03:36:03;;;;;;;10.90;7.68;;;;;;;;;;2090282;28;20057;-69
2023/08/28 03:37:03;;;;;;;9.60;7.20;;;;;;;;;;2090743;28;20045;-68
2023/08/28 03:38:05;;;;;;;10.40;6.47;;;;;;;;;;2090245;28;20451;-69
2023/08/28 03:39:06;;;;;;;9.20;6.60;;;;;;;;;;2090200;28;20413;-70
2023/08/28 03:40:09;;;;;;;8.65;6.70;;;;;;;;;;2089999;28;20052;-70
2023/08/28 03:41:09;;;;;;;10.23;7.03;;;;;;;;;;2089958;28;20049;-68
2023/08/28 03:42:10;;;;;;;9.25;7.25;;;;;;;;;;2089684;28;20484;-68
2023/08/28 03:43:11;;;;;;;11.50;7.43;;;;;;;;;;2090281;28;20515;-68
2023/08/28 03:44:11;;;;;;;11.20;6.50;;;;;;;;;;2090441;28;20041;-70
2023/08/28 03:45:13;;;;;;;10.30;6.93;;;;;;;;;;2090915;28;20036;-67
2023/08/28 03:46:14;;;;;;;10.20;7.30;;;;;;;;;;2090171;28;20041;-70
2023/08/28 03:47:14;;;;;;;9.23;6.95;;;;;;;;;;2089466;28;20041;-67
2023/08/28 03:48:15;;;;;;;9.95;7.22;;;;;;;;;;2081670;28;20379;-69
2023/08/28 03:49:16;;;;;;;10.60;6.78;;;;;;;;;;2090162;28;20055;-70
2023/08/28 03:50:16;;;;;;;12.57;7.53;;;;;;;;;;2091144;28;20041;-69
2023/08/28 03:51:17;;;;;;;10.27;7.50;;;;;;;;;;2089104;28;20048;-68
2023/08/28 03:52:18;;;;;;;8.52;6.63;;;;;;;;;;2090348;28;20044;-68
2023/08/28 03:53:18;;;;;;;11.15;8.00;;;;;;;;;;2090203;28;20443;-68
2023/08/28 03:54:19;;;;;;;10.75;8.18;;;;;;;;;;2081854;28;20076;-68
2023/08/28 03:55:20;;;;;;;11.45;7.72;;;;;;;;;;2090515;28;20462;-66
2023/08/28 03:56:22;;;;;;;12.93;8.35;;;;;;;;;;2090449;28;20041;-66
2023/08/28 03:57:23;;;;;;;11.57;8.23;;;;;;;;;;2090073;28;20053;-66
2023/08/28 03:58:23;;;;;;;11.57;8.50;;;;;;;;;;2090370;28;20045;-67
2023/08/28 03:59:24;;;;;;;11.80;8.57;;;;;;;;;;2090125;28;20091;-67
2023/08/28 04:00:25;;;;;;;13.05;8.55;;;;;;;;;;2081748;28;20045;-68
2023/08/28 04:01:26;;;;;;;12.75;8.98;;;;;;;;;;2090202;28;20036;-69
2023/08/28 04:02:27;;;;;;;11.95;9.18;;;;;;;;;;2090816;28;20025;-68
2023/08/28 04:03:27;;;;;;;13.18;9.07;;;;;;;;;;2090210;28;20048;-68
2023/08/28 04:04:28;;;;;;;13.15;9.90;;;;;;;;;;2090114;28;20045;-67
2023/08/28 04:05:32;;;;;;;14.02;9.55;;;;;;;;;;2081912;28;20049;-65
2023/08/28 04:06:34;;;;;;;12.77;9.13;;;;;;;;;;2090040;28;20064;-67
2023/08/28 04:07:35;;;;;;;14.10;9.88;;;;;;;;;;2089933;28;20044;-67
2023/08/28 04:08:36;;;;;;;13.35;9.27;;;;;;;;;;2081790;28;20041;-66
2023/08/28 04:09:37;;;;;;;13.85;10.35;;;;;;;;;;2089931;28;20044;-66
2023/08/28 04:10:37;;;;;;;10.63;8.32;;;;;;;;;;2097720;28;20064;-67
2023/08/28 04:11:38;;;;;;;11.65;7.57;;;;;;;;;;2089247;28;20036;-66
2023/08/28 04:12:39;;;;;;;11.43;7.38;;;;;;;;;;2081707;28;20132;-66
2023/08/28 04:13:41;;;;;;;13.18;7.65;;;;;;;;;;2081425;28;20080;-68
2023/08/28 04:14:42;;;;;;;11.75;7.32;;;;;;;;;;2082065;28;20113;-66
2023/08/28 04:15:42;;;;;;;11.45;7.70;;;;;;;;;;2081723;28;20041;-64
2023/08/28 04:16:43;;;;;;;10.38;7.35;;;;;;;;;;2081744;28;20466;-65
2023/08/28 04:17:44;;;;;;;9.98;7.72;;;;;;;;;;2089480;28;20052;-65
2023/08/28 04:18:44;;;;;;;13.13;7.70;;;;;;;;;;2090073;28;20032;-65
2023/08/28 04:19:45;;;;;;;12.20;7.38;;;;;;;;;;2089693;28;20037;-65
2023/08/28 04:20:46;;;;;;;9.88;7.15;;;;;;;;;;2090100;28;20150;-66
2023/08/28 04:21:47;;;;;;;9.02;6.53;;;;;;;;;;2090357;28;20041;-67
2023/08/28 04:22:47;;;;;;;9.60;6.53;;;;;;;;;;2089917;28;20040;-65
2023/08/28 04:23:48;;;;;;;11.77;6.80;;;;;;;;;;2090179;28;20374;-66
2023/08/28 04:24:49;;;;;;;11.32;6.88;;;;;;;;;;2090121;28;20061;-65
2023/08/28 04:25:51;;;;;;;10.48;6.60;;;;;;;;;;2090173;28;20037;-65
2023/08/28 04:26:52;;;;;;;10.30;6.53;;;;;;;;;;2081687;28;20037;-65
2023/08/28 04:27:52;;;;;;;10.95;6.30;;;;;;;;;;2081561;28;20037;-66
2023/08/28 04:28:53;;;;;;;11.93;7.22;;;;;;;;;;2090103;28;20033;-66
2023/08/28 04:29:54;;;;;;;9.50;6.50;;;;;;;;;;2091469;28;20433;-65
2023/08/28 04:30:55;;;;;;;9.88;7.05;;;;;;;;;;2089872;28;20485;-64
2023/08/28 04:31:55;;;;;;;10.73;7.07;;;;;;;;;;2090123;28;20132;-64
2023/08/28 04:32:56;;;;;;;9.57;7.30;;;;;;;;;;2097819;28;20055;-65
2023/08/28 04:33:57;;;;;;;9.73;7.03;;;;;;;;;;2089693;28;20032;-66
2023/08/28 04:34:58;;;;;;;12.70;7.55;;;;;;;;;;2081509;28;20457;-65
2023/08/28 04:35:59;;;;;;;11.02;7.15;;;;;;;;;;2089821;28;20040;-65
2023/08/28 04:37:00;;;;;;;10.63;6.85;;;;;;;;;;2089915;28;20033;-65
2023/08/28 04:38:01;;;;;;;12.23;7.38;;;;;;;;;;2081572;28;20049;-65
2023/08/28 04:39:02;;;;;;;10.80;7.82;;;;;;;;;;2081587;28;20046;-65
2023/08/28 04:40:03;;;;;;;13.80;7.43;;;;;;;;;;2081629;28;20109;-65
2023/08/28 04:41:04;;;;;;;13.48;8.20;;;;;;;;;;2081478;28;20421;-66
2023/08/28 04:42:05;;;;;;;11.95;7.97;;;;;;;;;;2089837;28;20036;-65
2023/08/28 04:43:06;;;;;;;12.68;8.85;;;;;;;;;;2089763;28;20045;-64
2023/08/28 04:44:06;;;;;;;15.20;8.93;;;;;;;;;;2081557;28;20049;-64
2023/08/28 04:45:07;;;;;;;16.02;9.50;;;;;;;;;;2089535;28;20037;-64
2023/08/28 04:46:09;;;;;;;14.43;9.05;;;;;;;;;;2089774;28;20033;-64
2023/08/28 04:47:10;;;;;;;11.18;8.07;;;;;;;;;;2089959;28;20540;-64
2023/08/28 04:48:10;;;;;;;12.38;8.35;;;;;;;;;;2089692;28;20064;-64
2023/08/28 04:49:11;;;;;;;13.98;9.13;;;;;;;;;;2081531;28;20087;-64
2023/08/28 04:50:12;;;;;;;13.85;9.68;;;;;;;;;;2081106;28;20104;-64
2023/08/28 04:51:12;;;;;;;15.43;10.23;;;;;;;;;;2089828;28;20469;-64
2023/08/28 04:52:13;;;;;;;15.52;10.00;;;;;;;;;;2090362;28;20059;-64
2023/08/28 04:53:14;;;;;;;18.60;10.48;;;;;;;;;;2089626;28;20045;-65
2023/08/28 04:54:15;;;;;;;13.00;9.23;;;;;;;;;;2080953;28;20184;-65
2023/08/28 04:55:15;;;;;;;15.35;10.18;;;;;;;;;;2089729;28;20039;-64
2023/08/28 04:56:16;;;;;;;14.68;10.27;;;;;;;;;;2090292;28;20041;-64
2023/08/28 04:57:17;;;;;;;16.17;10.30;;;;;;;;;;2089895;28;20440;-64
2023/08/28 04:58:18;;;;;;;14.43;10.05;;;;;;;;;;2080953;28;20067;-64
2023/08/28 04:59:19;;;;;;;15.50;9.45;;;;;;;;;;2089577;28;20071;-64
2023/08/28 05:00:20;;;;;;;18.27;11.63;;;;;;;;;;2089661;28;20437;-64
2023/08/28 05:01:21;;;;;;;15.77;11.80;;;;;;;;;;2081533;28;20455;-64
2023/08/28 05:02:21;;;;;;;16.13;12.05;;;;;;;;;;2081443;28;20048;-64
2023/08/28 05:03:22;;;;;;;16.48;11.45;;;;;;;;;;2081440;28;20041;-64
2023/08/28 05:04:23;;;;;;;16.95;10.60;;;;;;;;;;2089427;28;20041;-64
2023/08/28 05:05:24;;;;;;;19.17;11.70;;;;;;;;;;2089801;28;20044;-64
2023/08/28 05:06:24;;;;;;;17.23;12.80;;;;;;;;;;2081134;28;20064;-64
2023/08/28 05:07:26;;;;;;;18.00;11.02;;;;;;;;;;2088958;28;20525;-64
2023/08/28 05:08:27;;;;;;;18.48;13.77;;;;;;;;;;2090128;28;20084;-64
2023/08/28 05:09:27;;;;;;;19.15;12.25;;;;;;;;;;2089617;28;20049;-64
2023/08/28 05:10:28;;;;;;;16.42;11.65;;;;;;;;;;2089624;28;20037;-64
2023/08/28 05:11:29;;;;;;;18.13;11.95;;;;;;;;;;2089815;28;20040;-64
2023/08/28 05:12:29;;;;;;;19.77;11.93;;;;;;;;;;2090291;28;20041;-64
2023/08/28 05:13:30;;;;;;;15.75;10.95;;;;;;;;;;2090308;28;20036;-65
2023/08/28 05:14:31;;;;;;;14.68;10.63;;;;;;;;;;2089596;28;20519;-65
2023/08/28 05:15:32;;;;;;;20.35;12.00;;;;;;;;;;2089731;28;20060;-65
2023/08/28 05:16:33;;;;;;;15.93;11.23;;;;;;;;;;2089853;28;20079;-65
2023/08/28 05:17:34;;;;;;;18.27;11.68;;;;;;;;;;2089614;28;20049;-65
2023/08/28 05:18:34;;;;;;;12.45;8.45;;;;;;;;;;2081307;28;20049;-65
2023/08/28 05:19:35;;;;;;;15.38;9.80;;;;;;;;;;2081738;28;20069;-65
2023/08/28 05:20:36;;;;;;;14.90;10.73;;;;;;;;;;2089292;28;20056;-65
2023/08/28 05:21:38;;;;;;;14.75;10.95;;;;;;;;;;2089106;28;20044;-65
2023/08/28 05:22:38;;;;;;;15.10;9.90;;;;;;;;;;2088821;28;20123;-65
2023/08/28 05:23:39;;;;;;;17.52;11.35;;;;;;;;;;2089356;28;20397;-65
2023/08/28 05:24:41;;;;;;;13.57;9.68;;;;;;;;;;2081418;28;20037;-66
2023/08/28 05:25:42;;;;;;;15.52;11.52;;;;;;;;;;2089982;28;20072;-66
2023/08/28 05:26:43;;;;;;;14.05;10.82;;;;;;;;;;2089539;28;20033;-65
2023/08/28 05:27:43;;;;;;;14.60;10.15;;;;;;;;;;2089655;28;20374;-65
2023/08/28 05:28:45;;;;;;;14.27;10.40;;;;;;;;;;2089587;28;20052;-65
2023/08/28 05:29:46;;;;;;;15.15;10.57;;;;;;;;;;2089318;28;20458;-64
2023/08/28 05:30:46;;;;;;;15.85;11.55;;;;;;;;;;2090118;28;20492;-64
2023/08/28 05:31:47;;;;;;;14.88;10.60;;;;;;;;;;2089385;28;20036;-65
2023/08/28 05:32:49;;;;;;;17.08;11.80;;;;;;;;;;2081065;28;20045;-64
2023/08/28 05:33:49;;;;;;;14.05;10.60;;;;;;;;;;2089749;28;20489;-64
2023/08/28 05:34:50;;;;;;;17.73;11.55;;;;;;;;;;2090370;28;20048;-64
2023/08/28 05:35:51;;;;;;;15.55;11.40;;;;;;;;;;2090280;28;20032;-64
2023/08/28 05:36:52;;;;;;;13.15;10.18;;;;;;;;;;2089428;28;20084;-64
2023/08/28 05:37:53;;;;;;;18.25;11.85;;;;;;;;;;2081265;28;20037;-65
2023/08/28 05:38:53;;;;;;;16.23;11.48;;;;;;;;;;2088918;28;20033;-65
2023/08/28 05:39:54;;;;;;;16.95;11.45;;;;;;;;;;2090075;28;20025;-64
2023/08/28 05:40:55;;;;;;;20.45;12.55;;;;;;;;;;2090379;28;20458;-64
2023/08/28 05:41:56;;;;;;;17.05;12.50;;;;;;;;;;2089767;28;20043;-64
2023/08/28 05:42:56;;;;;;;17.05;12.55;;;;;;;;;;2081147;28;20029;-64
2023/08/28 05:43:57;;;;;;;18.35;12.18;;;;;;;;;;2081444;28;20041;-64
2023/08/28 05:44:58;;;;;;;19.40;13.30;;;;;;;;;;2081183;28;20041;-64
2023/08/28 05:46:00;;;;;;;21.38;14.38;;;;;;;;;;2080812;28;20045;-64
2023/08/28 05:47:01;;;;;;;16.00;11.40;;;;;;;;;;2080992;28;20072;-64
2023/08/28 05:48:02;;;;;;;16.02;11.93;;;;;;;;;;2081350;28;20045;-64
2023/08/28 05:49:03;;;;;;;15.68;11.93;;;;;;;;;;2080517;28;20509;-64
2023/08/28 05:50:04;;;;;;;15.05;12.10;;;;;;;;;;2089503;28;20460;-63
2023/08/28 05:51:04;;;;;;;16.80;13.20;;;;;;;;;;2089380;28;20112;-64
2023/08/28 05:52:05;;;;;;;15.23;11.75;;;;;;;;;;2081137;28;20052;-64
2023/08/28 05:53:09;;;;;;;16.80;11.88;;;;;;;;;;2089649;28;20416;-64
2023/08/28 05:54:10;;;;;;;17.08;11.98;;;;;;;;;;2089421;28;20425;-65
2023/08/28 05:55:10;;;;;;;19.02;12.32;;;;;;;;;;2081209;28;20040;-64
2023/08/28 05:56:11;;;;;;;17.20;11.65;;;;;;;;;;2089517;28;20052;-64
2023/08/28 05:57:14;;;;;;;15.35;10.25;;;;;;;;;;2089846;28;20041;-64
2023/08/28 05:58:15;;;;;;;15.02;11.25;;;;;;;;;;2089330;28;20053;-64
2023/08/28 05:59:15;;;;;;;15.77;11.60;;;;;;;;;;2089554;28;20120;-64
2023/08/28 06:00:16;;;;;;;14.55;10.65;;;;;;;;;;2089429;28;20090;-63
2023/08/28 06:01:17;;;;;;;15.52;11.40;;;;;;;;;;2089558;28;20052;-63
2023/08/28 06:02:19;;;;;;;16.90;11.43;;;;;;;;;;2089580;28;20037;-64
2023/08/28 06:03:20;;;;;;;15.63;10.43;;;;;;;;;;2081150;28;20045;-64
2023/08/28 06:04:20;;;;;;;13.90;9.88;;;;;;;;;;2081361;28;20065;-64
2023/08/28 06:05:21;;;;;;;14.02;10.55;;;;;;;;;;2089540;28;20496;-64